createdAt,value
2019-05-28T00:01:27.026Z,99440.00
2019-05-28T00:03:56.759Z,99435.00
2019-05-28T00:06:26.648Z,99435.00
2019-05-28T00:08:56.608Z,99434.00
2019-05-28T00:11:26.297Z,99433.00
2019-05-28T00:13:55.967Z,99434.00
2019-05-28T00:16:25.698Z,99436.00
2019-05-28T00:18:56.946Z,99433.00
2019-05-28T00:21:26.795Z,99435.00
2019-05-28T00:23:56.448Z,99428.00
2019-05-28T00:26:26.721Z,99425.00
2019-05-28T00:28:56.398Z,99423.00
2019-05-28T00:31:26.054Z,99417.00
2019-05-28T00:33:55.987Z,99431.00
2019-05-28T00:36:25.652Z,99425.00
2019-05-28T00:38:55.470Z,99422.00
2019-05-28T00:41:27.007Z,99427.00
2019-05-28T00:43:56.678Z,99423.00
2019-05-28T00:46:27.502Z,99421.00
2019-05-28T00:48:57.819Z,99420.00
2019-05-28T00:51:28.221Z,99430.00
2019-05-28T00:53:58.299Z,99426.00
2019-05-28T00:56:28.796Z,99434.00
2019-05-28T00:58:59.677Z,99432.00
2019-05-28T01:01:29.366Z,99426.00
2019-05-28T01:04:00.095Z,99423.00
2019-05-28T01:06:29.766Z,99422.00
2019-05-28T01:08:59.441Z,99433.00
2019-05-28T01:11:30.764Z,99429.00
2019-05-28T01:14:00.455Z,99430.00
2019-05-28T01:16:30.161Z,99427.00
2019-05-28T01:18:59.889Z,99433.00
2019-05-28T01:21:29.755Z,99435.00
2019-05-28T01:23:59.551Z,99433.00
2019-05-28T01:26:29.239Z,99431.00
2019-05-28T01:28:58.915Z,99424.00
2019-05-28T01:31:28.609Z,99427.00
2019-05-28T01:33:58.296Z,99388.00
2019-05-28T01:36:28.248Z,99430.00
2019-05-28T01:38:57.928Z,99435.00
2019-05-28T01:41:27.636Z,99438.00
2019-05-28T01:43:57.303Z,99431.00
2019-05-28T01:46:26.998Z,99440.00
2019-05-28T01:48:58.443Z,99439.00
2019-05-28T01:51:28.108Z,99439.00
2019-05-28T01:53:57.792Z,99437.00
2019-05-28T01:56:27.515Z,99439.00
2019-05-28T01:58:57.200Z,99441.00
2019-05-28T02:01:28.455Z,99444.00
2019-05-28T02:03:58.156Z,99440.00
2019-05-28T02:06:27.820Z,99436.00
2019-05-28T02:08:57.471Z,99441.00
2019-05-28T02:11:27.191Z,99437.00
2019-05-28T02:13:56.861Z,99447.00
2019-05-28T02:16:26.507Z,99450.00
2019-05-28T02:18:56.399Z,99443.00
2019-05-28T02:21:29.165Z,99433.00
2019-05-28T02:24:00.457Z,99441.00
2019-05-28T02:26:30.167Z,99445.00
2019-05-28T02:28:59.845Z,99439.00
2019-05-28T02:31:29.798Z,99439.00
2019-05-28T02:33:59.477Z,99439.00
2019-05-28T02:36:29.135Z,99440.00
2019-05-28T02:38:59.129Z,99445.00
2019-05-28T02:41:30.374Z,99441.00
2019-05-28T02:44:01.051Z,99440.00
2019-05-28T02:46:31.562Z,99447.00
2019-05-28T02:49:05.653Z,99444.00
2019-05-28T02:51:35.607Z,99440.00
2019-05-28T02:54:05.574Z,99448.00
2019-05-28T02:56:37.070Z,99448.00
2019-05-28T02:59:08.734Z,99454.00
2019-05-28T03:01:44.219Z,99455.00
2019-05-28T03:04:15.912Z,99459.00
2019-05-28T03:06:49.560Z,99453.00
2019-05-28T03:09:23.410Z,99453.00
2019-05-28T03:11:53.079Z,99443.00
2019-05-28T03:14:22.789Z,99452.00
2019-05-28T03:16:56.680Z,99462.00
2019-05-28T03:19:29.871Z,99464.00
2019-05-28T03:22:02.949Z,99461.00
2019-05-28T03:24:35.602Z,99458.00
2019-05-28T03:27:07.315Z,99453.00
2019-05-28T03:29:38.297Z,99459.00
2019-05-28T03:32:09.864Z,99465.00
2019-05-28T03:34:42.281Z,99461.00
2019-05-28T03:37:13.853Z,99463.00
2019-05-28T03:39:48.095Z,99466.00
2019-05-28T03:42:18.165Z,99467.00
2019-05-28T03:44:47.823Z,99454.00
2019-05-28T03:47:17.486Z,99468.00
2019-05-28T03:49:47.196Z,99468.00
2019-05-28T03:52:16.875Z,99478.00
2019-05-28T03:54:46.714Z,99473.00
2019-05-28T03:57:16.383Z,99477.00
2019-05-28T03:59:46.082Z,99472.00
2019-05-28T04:02:23.441Z,99474.00
2019-05-28T04:04:47.138Z,99480.00
2019-05-28T04:07:16.850Z,99480.00
2019-05-28T04:09:46.536Z,99483.00
2019-05-28T04:12:16.196Z,99492.00
2019-05-28T04:14:48.573Z,99486.00
2019-05-28T04:17:19.645Z,99529.00
2019-05-28T04:19:49.322Z,99493.00
2019-05-28T04:22:19.013Z,99495.00
2019-05-28T04:24:48.599Z,99497.00
2019-05-28T04:27:20.523Z,99499.00
2019-05-28T04:29:51.651Z,99501.00
2019-05-28T04:32:21.427Z,99500.00
2019-05-28T04:34:51.230Z,99509.00
2019-05-28T04:37:20.905Z,99512.00
2019-05-28T04:39:50.565Z,99510.00
2019-05-28T04:42:21.698Z,99510.00
2019-05-28T04:44:51.457Z,99511.00
2019-05-28T04:47:21.710Z,99509.00
2019-05-28T04:49:51.887Z,99511.00
2019-05-28T04:52:22.703Z,99514.00
2019-05-28T04:54:56.053Z,99517.00
2019-05-28T04:57:26.894Z,99529.00
2019-05-28T04:59:57.560Z,99526.00
2019-05-28T05:02:28.011Z,99531.00
2019-05-28T05:04:57.692Z,99531.00
2019-05-28T05:07:27.383Z,99528.00
2019-05-28T05:09:57.046Z,99533.00
2019-05-28T05:12:26.641Z,99530.00
2019-05-28T05:14:57.884Z,99528.00
2019-05-28T05:17:27.743Z,99542.00
2019-05-28T05:19:57.616Z,99539.00
2019-05-28T05:22:27.318Z,99546.00
2019-05-28T05:24:56.980Z,99539.00
2019-05-28T05:27:26.658Z,99549.00
2019-05-28T05:29:56.360Z,99539.00
2019-05-28T05:32:27.833Z,99547.00
2019-05-28T05:34:58.207Z,99560.00
2019-05-28T05:37:29.934Z,99555.00
2019-05-28T05:39:59.615Z,99556.00
2019-05-28T05:42:29.425Z,99556.00
2019-05-28T05:44:59.211Z,99548.00
2019-05-28T05:47:29.078Z,99549.00
2019-05-28T05:49:58.751Z,99555.00
2019-05-28T05:52:28.460Z,99562.00
2019-05-28T05:54:58.212Z,99566.00
2019-05-28T05:57:29.510Z,99557.00
2019-05-28T06:00:00.602Z,99565.00
2019-05-28T06:02:30.211Z,99569.00
2019-05-28T06:05:00.216Z,99566.00
2019-05-28T06:07:31.527Z,99576.00
2019-05-28T06:10:02.768Z,99586.00
2019-05-28T06:12:32.442Z,99585.00
2019-05-28T06:15:02.645Z,99587.00
2019-05-28T06:17:34.165Z,99594.00
2019-05-28T06:20:07.128Z,99587.00
2019-05-28T06:22:37.925Z,99604.00
2019-05-28T06:25:09.403Z,99598.00
2019-05-28T06:27:39.076Z,99612.00
2019-05-28T06:30:10.328Z,99600.00
2019-05-28T06:32:41.486Z,99612.00
2019-05-28T06:35:13.122Z,99612.00
2019-05-28T06:37:42.899Z,99615.00
2019-05-28T06:40:14.669Z,99611.00
2019-05-28T06:42:44.333Z,99617.00
2019-05-28T06:45:14.626Z,99624.00
2019-05-28T06:47:45.582Z,99623.00
2019-05-28T06:50:16.516Z,99626.00
2019-05-28T06:52:46.216Z,99637.00
2019-05-28T06:55:16.009Z,99632.00
2019-05-28T06:57:47.108Z,99633.00
2019-05-28T07:00:17.697Z,99635.00
2019-05-28T07:02:49.001Z,99639.00
2019-05-28T07:05:19.347Z,99633.00
2019-05-28T07:07:49.047Z,99637.00
2019-05-28T07:10:19.235Z,99640.00
2019-05-28T07:12:48.907Z,99645.00
2019-05-28T07:15:18.582Z,99652.00
2019-05-28T07:17:48.255Z,99647.00
2019-05-28T07:20:18.822Z,99648.00
2019-05-28T07:22:49.652Z,99656.00
2019-05-28T07:25:19.741Z,99651.00
2019-05-28T07:27:49.791Z,99568.00
2019-05-28T07:30:20.016Z,99658.00
2019-05-28T07:32:49.756Z,99653.00
2019-05-28T07:35:19.410Z,99660.00
2019-05-28T07:37:50.483Z,99657.00
2019-05-28T07:40:31.096Z,99668.00
2019-05-28T07:42:51.566Z,99677.00
2019-05-28T07:45:21.263Z,99682.00
2019-05-28T07:47:50.930Z,99685.00
2019-05-28T07:50:20.608Z,99688.00
2019-05-28T07:52:50.297Z,99684.00
2019-05-28T07:55:20.279Z,99697.00
2019-05-28T07:57:49.953Z,99700.00
2019-05-28T08:00:24.047Z,99701.00
2019-05-28T08:02:53.729Z,99703.00
2019-05-28T08:05:23.844Z,99703.00
2019-05-28T08:07:53.592Z,99701.00
2019-05-28T08:10:23.322Z,99720.00
2019-05-28T08:12:53.000Z,99700.00
2019-05-28T08:15:23.679Z,99709.00
2019-05-28T08:17:53.398Z,99712.00
2019-05-28T08:20:24.591Z,99708.00
2019-05-28T08:22:54.355Z,99714.00
2019-05-28T08:25:45.662Z,99719.00
2019-05-28T08:27:56.431Z,99720.00
2019-05-28T08:30:26.179Z,99729.00
2019-05-28T08:32:55.853Z,99691.00
2019-05-28T08:35:25.533Z,99725.00
2019-05-28T08:37:55.232Z,99726.00
2019-05-28T08:40:26.327Z,99731.00
2019-05-28T08:42:56.090Z,99737.00
2019-05-28T08:45:26.488Z,99740.00
2019-05-28T08:47:56.131Z,99740.00
2019-05-28T08:50:34.453Z,99742.00
2019-05-28T08:52:57.698Z,99743.00
2019-05-28T08:55:27.350Z,99741.00
2019-05-28T08:57:57.134Z,99750.00
2019-05-28T09:00:44.183Z,99755.00
2019-05-28T09:03:14.606Z,99754.00
2019-05-28T09:05:44.585Z,99753.00
2019-05-28T09:08:14.279Z,99766.00
2019-05-28T09:10:44.342Z,99767.00
2019-05-28T09:13:14.076Z,99774.00
2019-05-28T09:15:43.748Z,99774.00
2019-05-28T09:18:13.420Z,99775.00
2019-05-28T09:20:43.710Z,99779.00
2019-05-28T09:23:13.626Z,99786.00
2019-05-28T09:25:45.308Z,99779.00
2019-05-28T09:28:29.395Z,99788.00
2019-05-28T09:30:48.553Z,99788.00
2019-05-28T09:33:18.400Z,99803.00
2019-05-28T09:36:06.359Z,99797.00
2019-05-28T09:38:20.446Z,99793.00
2019-05-28T09:40:51.304Z,99809.00
2019-05-28T09:43:23.237Z,99805.00
2019-05-28T09:45:52.902Z,99803.00
2019-05-28T09:48:22.752Z,99811.00
2019-05-28T09:50:52.439Z,99824.00
2019-05-28T09:53:22.113Z,99838.00
2019-05-28T09:55:51.784Z,99837.00
2019-05-28T09:58:21.457Z,99846.00
2019-05-28T10:00:58.068Z,99851.00
2019-05-28T10:03:23.800Z,99847.00
2019-05-28T10:06:06.793Z,99853.00
2019-05-28T10:08:24.999Z,99850.00
2019-05-28T10:10:54.639Z,99848.00
2019-05-28T10:13:38.001Z,99844.00
2019-05-28T10:15:56.025Z,99844.00
2019-05-28T10:18:25.657Z,99851.00
2019-05-28T10:20:55.335Z,99849.00
2019-05-28T10:23:25.002Z,99856.00
2019-05-28T10:25:55.836Z,99867.00
2019-05-28T10:28:27.801Z,99863.00
2019-05-28T10:30:59.933Z,99870.00
2019-05-28T10:33:29.637Z,99878.00
2019-05-28T10:35:59.352Z,99887.00
2019-05-28T10:38:29.008Z,99898.00
2019-05-28T10:40:58.727Z,99899.00
2019-05-28T10:43:28.408Z,99898.00
2019-05-28T10:45:58.240Z,99899.00
2019-05-28T10:48:28.035Z,99903.00
2019-05-28T10:50:57.721Z,99899.00
2019-05-28T10:53:27.546Z,99891.00
2019-05-28T10:56:00.395Z,99904.00
2019-05-28T10:58:31.603Z,99913.00
2019-05-28T11:01:02.679Z,99914.00
2019-05-28T11:03:32.546Z,99911.00
2019-05-28T11:06:03.398Z,99912.00
2019-05-28T11:08:33.058Z,99917.00
2019-05-28T11:11:24.731Z,99927.00
2019-05-28T11:13:54.430Z,99935.00
2019-05-28T11:16:24.133Z,99926.00
2019-05-28T11:18:55.080Z,99933.00
2019-05-28T11:21:24.747Z,99935.00
2019-05-28T11:23:54.410Z,99936.00
2019-05-28T11:26:24.105Z,99940.00
2019-05-28T11:28:53.777Z,99938.00
2019-05-28T11:31:23.443Z,99948.00
2019-05-28T11:33:53.166Z,99940.00
2019-05-28T11:36:24.300Z,99935.00
2019-05-28T11:38:54.015Z,99930.00
2019-05-28T11:41:40.572Z,99930.00
2019-05-28T11:43:55.109Z,99930.00
2019-05-28T11:46:24.770Z,99936.00
2019-05-28T11:48:54.468Z,99934.00
2019-05-28T11:51:24.144Z,99944.00
2019-05-28T11:53:55.082Z,99947.00
2019-05-28T11:56:28.605Z,99948.00
2019-05-28T11:58:58.244Z,99962.00
2019-05-28T12:01:34.309Z,99966.00
2019-05-28T12:03:59.366Z,99959.00
2019-05-28T12:06:29.040Z,99954.00
2019-05-28T12:08:58.730Z,99953.00
2019-05-28T12:11:28.447Z,99950.00
2019-05-28T12:13:58.131Z,99961.00
2019-05-28T12:16:27.799Z,99955.00
2019-05-28T12:18:58.401Z,99958.00
2019-05-28T12:21:28.530Z,99961.00
2019-05-28T12:23:59.734Z,99966.00
2019-05-28T12:26:29.445Z,99980.00
2019-05-28T12:28:59.207Z,99982.00
2019-05-28T12:31:28.880Z,99981.00
2019-05-28T12:33:58.587Z,99996.00
2019-05-28T12:36:28.266Z,100012.00
2019-05-28T12:38:58.007Z,100016.00
2019-05-28T12:41:27.730Z,100020.00
2019-05-28T12:43:57.470Z,100023.00
2019-05-28T12:46:27.442Z,100019.00
2019-05-28T12:48:57.152Z,100013.00
2019-05-28T12:51:26.805Z,99986.00
2019-05-28T12:53:56.535Z,100005.00
2019-05-28T12:56:26.197Z,100005.00
2019-05-28T12:59:00.421Z,100015.00
2019-05-28T13:01:30.098Z,100004.00
2019-05-28T13:03:59.802Z,100008.00
2019-05-28T13:06:31.121Z,100012.00
2019-05-28T13:09:01.905Z,100019.00
2019-05-28T13:11:31.623Z,100013.00
2019-05-28T13:14:01.308Z,100012.00
2019-05-28T13:16:31.001Z,100010.00
2019-05-28T13:19:02.972Z,100015.00
2019-05-28T13:21:33.070Z,100023.00
2019-05-28T13:24:02.723Z,100011.00
2019-05-28T13:26:34.827Z,100018.00
2019-05-28T13:29:04.678Z,100023.00
2019-05-28T13:31:34.669Z,100016.00
2019-05-28T13:34:07.642Z,100027.00
2019-05-28T13:36:37.325Z,100034.00
2019-05-28T13:39:08.575Z,100031.00
2019-05-28T13:41:39.770Z,100031.00
2019-05-28T13:44:10.929Z,100033.00
2019-05-28T13:46:43.404Z,100023.00
2019-05-28T13:49:13.711Z,100024.00
2019-05-28T13:51:44.941Z,100025.00
2019-05-28T13:54:14.638Z,100025.00
2019-05-28T13:56:44.343Z,100024.00
2019-05-28T13:59:14.680Z,100024.00
2019-05-28T14:01:44.346Z,100044.00
2019-05-28T14:04:14.118Z,100047.00
2019-05-28T14:06:44.780Z,100050.00
2019-05-28T14:09:14.751Z,100045.00
2019-05-28T14:11:46.606Z,100069.00
2019-05-28T14:14:16.270Z,100051.00
2019-05-28T14:16:48.059Z,100058.00
2019-05-28T14:19:17.886Z,100064.00
2019-05-28T14:21:47.547Z,100077.00
2019-05-28T14:24:17.228Z,100080.00
2019-05-28T14:26:46.926Z,100069.00
2019-05-28T14:29:16.697Z,100075.00
2019-05-28T14:31:46.382Z,100080.00
2019-05-28T14:34:17.169Z,100078.00
2019-05-28T14:36:46.820Z,100080.00
2019-05-28T14:39:16.475Z,100050.00
2019-05-28T14:41:46.161Z,100088.00
2019-05-28T14:44:18.393Z,100086.00
2019-05-28T14:46:48.074Z,100094.00
2019-05-28T14:49:17.761Z,100090.00
2019-05-28T14:51:47.430Z,100088.00
2019-05-28T14:54:17.256Z,100089.00
2019-05-28T14:56:46.935Z,100062.00
2019-05-28T14:59:18.140Z,100075.00
2019-05-28T15:01:50.536Z,100094.00
2019-05-28T15:04:20.248Z,100082.00
2019-05-28T15:06:49.944Z,100107.00
2019-05-28T15:09:21.514Z,100112.00
2019-05-28T15:11:51.039Z,100109.00
2019-05-28T15:14:22.165Z,100119.00
2019-05-28T15:16:51.830Z,100112.00
2019-05-28T15:19:21.614Z,100113.00
2019-05-28T15:21:51.277Z,100125.00
2019-05-28T15:24:20.947Z,100119.00
2019-05-28T15:26:50.647Z,100121.00
2019-05-28T15:29:20.422Z,100102.00
2019-05-28T15:31:50.531Z,100100.00
2019-05-28T15:34:20.218Z,100102.00
2019-05-28T15:36:50.197Z,100116.00
2019-05-28T15:39:36.068Z,100130.00
2019-05-28T15:41:51.547Z,100122.00
2019-05-28T15:44:21.296Z,100121.00
2019-05-28T15:46:50.981Z,100130.00
2019-05-28T15:49:21.580Z,100103.00
2019-05-28T15:51:51.251Z,100128.00
2019-05-28T15:54:20.937Z,100112.00
2019-05-28T15:56:50.997Z,100111.00
2019-05-28T15:59:22.229Z,100101.00
2019-05-28T16:01:53.200Z,100106.00
2019-05-28T16:04:23.573Z,100121.00
2019-05-28T16:06:53.435Z,100118.00
2019-05-28T16:09:24.152Z,100143.00
2019-05-28T16:11:53.918Z,100143.00
2019-05-28T16:14:23.597Z,100147.00
2019-05-28T16:16:55.026Z,100148.00
2019-05-28T16:19:25.090Z,100149.00
2019-05-28T16:21:56.998Z,100148.00
2019-05-28T16:24:28.213Z,100154.00
2019-05-28T16:26:57.868Z,100142.00
2019-05-28T16:29:27.557Z,100138.00
2019-05-28T16:31:57.260Z,100139.00
2019-05-28T16:34:28.375Z,100132.00
2019-05-28T16:36:59.519Z,100134.00
2019-05-28T16:39:30.319Z,100143.00
2019-05-28T16:41:59.994Z,100140.00
2019-05-28T16:44:29.760Z,100147.00
2019-05-28T16:47:15.314Z,100140.00
2019-05-28T16:49:31.203Z,100152.00
2019-05-28T16:52:02.566Z,100145.00
2019-05-28T16:54:32.487Z,100150.00
2019-05-28T16:57:03.594Z,100153.00
2019-05-28T16:59:33.243Z,100154.00
2019-05-28T17:02:04.167Z,100149.00
2019-05-28T17:04:33.878Z,100160.00
2019-05-28T17:07:03.449Z,100173.00
2019-05-28T17:09:33.924Z,100161.00
2019-05-28T17:12:04.969Z,100181.00
2019-05-28T17:14:36.955Z,100174.00
2019-05-28T17:17:08.678Z,100175.00
2019-05-28T17:19:38.367Z,100170.00
2019-05-28T17:22:11.903Z,100164.00
2019-05-28T17:24:42.312Z,100163.00
2019-05-28T17:27:12.072Z,100179.00
2019-05-28T17:29:41.758Z,100162.00
2019-05-28T17:32:11.487Z,100173.00
2019-05-28T17:34:41.760Z,100168.00
2019-05-28T17:37:11.448Z,100175.00
2019-05-28T17:39:41.132Z,100183.00
2019-05-28T17:42:11.056Z,100179.00
2019-05-28T17:44:43.045Z,100180.00
2019-05-28T17:47:14.364Z,100184.00
2019-05-28T17:49:45.647Z,100180.00
2019-05-28T17:52:15.363Z,100196.00
2019-05-28T17:54:45.027Z,100201.00
2019-05-28T17:57:14.708Z,100192.00
2019-05-28T17:59:45.686Z,100198.00
2019-05-28T18:02:15.346Z,100198.00
2019-05-28T18:04:45.017Z,100220.00
2019-05-28T18:07:14.718Z,100203.00
2019-05-28T18:09:44.485Z,100222.00
2019-05-28T18:12:14.177Z,100221.00
2019-05-28T18:14:43.907Z,100218.00
2019-05-28T18:17:13.588Z,100224.00
2019-05-28T18:19:45.498Z,100225.00
2019-05-28T18:22:15.341Z,100228.00
2019-05-28T18:24:45.026Z,100233.00
2019-05-28T18:27:14.687Z,100233.00
2019-05-28T18:29:44.467Z,100243.00
2019-05-28T18:32:14.131Z,100244.00
2019-05-28T18:34:43.789Z,100241.00
2019-05-28T18:37:13.577Z,100250.00
2019-05-28T18:39:43.252Z,100261.00
2019-05-28T18:42:14.556Z,100253.00
2019-05-28T18:44:44.251Z,100257.00
2019-05-28T18:47:13.995Z,100257.00
2019-05-28T18:49:43.678Z,100267.00
2019-05-28T18:52:13.407Z,100278.00
2019-05-28T18:54:43.253Z,100269.00
2019-05-28T18:57:13.162Z,100265.00
2019-05-28T18:59:42.915Z,100266.00
2019-05-28T19:02:12.921Z,100275.00
2019-05-28T19:04:42.658Z,100285.00
2019-05-28T19:07:12.337Z,100286.00
2019-05-28T19:09:43.480Z,100278.00
2019-05-28T19:12:13.138Z,100291.00
2019-05-28T19:14:42.933Z,100305.00
2019-05-28T19:17:13.853Z,100307.00
2019-05-28T19:19:43.505Z,100310.00
2019-05-28T19:22:14.381Z,100265.00
2019-05-28T19:24:44.036Z,100308.00
2019-05-28T19:27:13.714Z,100326.00
2019-05-28T19:29:44.878Z,100318.00
2019-05-28T19:32:14.609Z,100323.00
2019-05-28T19:34:48.589Z,100332.00
2019-05-28T19:37:16.874Z,100337.00
2019-05-28T19:39:47.632Z,100344.00
2019-05-28T19:42:17.441Z,100337.00
2019-05-28T19:44:47.144Z,100338.00
2019-05-28T19:47:16.814Z,100335.00
2019-05-28T19:49:46.609Z,100352.00
2019-05-28T19:52:16.378Z,100349.00
2019-05-28T19:54:46.135Z,100376.00
2019-05-28T19:57:17.491Z,100365.00
2019-05-28T19:59:48.600Z,100375.00
2019-05-28T20:02:19.676Z,100371.00
2019-05-28T20:04:55.105Z,100378.00
2019-05-28T20:07:24.775Z,100384.00
2019-05-28T20:09:54.509Z,100376.00
2019-05-28T20:12:24.413Z,100375.00
2019-05-28T20:14:54.105Z,100372.00
2019-05-28T20:17:23.786Z,100381.00
2019-05-28T20:19:57.419Z,100386.00
2019-05-28T20:22:26.698Z,100387.00
2019-05-28T20:24:56.374Z,100387.00
2019-05-28T20:27:26.084Z,100395.00
2019-05-28T20:29:55.754Z,100388.00
2019-05-28T20:32:28.231Z,100391.00
2019-05-28T20:34:59.155Z,100400.00
2019-05-28T20:37:31.490Z,100397.00
2019-05-28T20:40:02.268Z,100403.00
2019-05-28T20:42:35.870Z,100405.00
2019-05-28T20:45:18.552Z,100405.00
2019-05-28T20:47:48.150Z,100419.00
2019-05-28T20:50:18.415Z,100413.00
2019-05-28T20:52:48.151Z,100414.00
2019-05-28T20:55:18.636Z,100412.00
2019-05-28T20:57:49.162Z,100402.00
2019-05-28T21:00:23.890Z,100418.00
2019-05-28T21:02:53.933Z,100404.00
2019-05-28T21:05:23.984Z,100413.00
2019-05-28T21:07:54.748Z,100410.00
2019-05-28T21:10:27.161Z,100414.00
2019-05-28T21:12:56.965Z,100404.00
2019-05-28T21:15:26.881Z,100423.00
2019-05-28T21:17:57.372Z,100406.00
2019-05-28T21:20:34.496Z,100408.00
2019-05-28T21:23:05.367Z,100379.00
2019-05-28T21:25:36.505Z,100420.00
2019-05-28T21:28:09.368Z,100420.00
2019-05-28T21:30:38.995Z,100423.00
2019-05-28T21:33:08.687Z,100441.00
2019-05-28T21:35:40.223Z,100422.00
2019-05-28T21:38:09.878Z,100428.00
2019-05-28T21:40:39.555Z,100432.00
2019-05-28T21:43:10.058Z,100432.00
2019-05-28T21:45:41.439Z,100429.00
2019-05-28T21:48:11.100Z,100437.00
2019-05-28T21:50:40.807Z,100436.00
2019-05-28T21:53:10.481Z,100442.00
2019-05-28T21:55:41.391Z,100448.00
2019-05-28T21:58:11.091Z,100459.00
2019-05-28T22:00:46.815Z,100452.00
2019-05-28T22:03:17.011Z,100452.00
2019-05-28T22:05:46.656Z,100460.00
2019-05-28T22:08:18.518Z,100453.00
2019-05-28T22:10:48.276Z,100461.00
2019-05-28T22:13:22.169Z,100466.00
2019-05-28T22:15:49.352Z,100461.00
2019-05-28T22:18:20.538Z,100466.00
2019-05-28T22:20:51.098Z,100456.00
2019-05-28T22:23:22.832Z,100452.00
2019-05-28T22:25:52.499Z,100455.00
2019-05-28T22:28:22.241Z,100451.00
2019-05-28T22:30:52.146Z,100461.00
2019-05-28T22:33:21.910Z,100465.00
2019-05-28T22:35:52.821Z,100464.00
2019-05-28T22:38:22.495Z,100460.00
2019-05-28T22:40:52.257Z,100463.00
2019-05-28T22:43:31.249Z,100457.00
2019-05-28T22:45:53.393Z,100445.00
2019-05-28T22:48:24.608Z,100453.00
2019-05-28T22:50:54.265Z,100448.00
2019-05-28T22:53:23.952Z,100450.00
2019-05-28T22:55:54.552Z,100454.00
2019-05-28T22:58:25.426Z,100451.00
2019-05-28T23:00:55.103Z,100447.00
2019-05-28T23:03:24.789Z,100453.00
2019-05-28T23:05:54.467Z,100444.00
2019-05-28T23:08:24.123Z,100439.00
2019-05-28T23:10:56.772Z,100442.00
2019-05-28T23:13:25.214Z,100439.00
2019-05-28T23:15:54.894Z,100447.00
2019-05-28T23:18:24.574Z,100446.00
2019-05-28T23:20:55.685Z,100448.00
2019-05-28T23:23:27.534Z,100461.00
2019-05-28T23:25:57.231Z,100457.00
2019-05-28T23:28:26.955Z,100463.00
2019-05-28T23:30:58.810Z,100462.00
2019-05-28T23:33:28.545Z,100450.00
2019-05-28T23:35:58.263Z,100450.00
2019-05-28T23:38:31.256Z,100450.00
2019-05-28T23:41:03.397Z,100449.00
2019-05-28T23:43:33.643Z,100454.00
2019-05-28T23:46:04.496Z,100456.00
2019-05-28T23:48:34.396Z,100460.00
2019-05-28T23:51:04.386Z,100451.00
2019-05-28T23:53:35.713Z,100457.00
2019-05-28T23:56:05.588Z,100465.00
2019-05-28T23:58:36.776Z,100467.00
